Nearby METAR Reports

 

KMQY - Smyrna, Tennessee, USA
Distance from station: WNW 14mi, 22km
Updated: Sun, 18-Nov-2018 11:56am CST
Clear
Clear
 Wind from varies
Wind: varies 5 mph , 7 km/h
Temperature: 61°F , 16°C
Dew Point: 45°F , 7°C
Humidity: 55%
Barometer: 30.21 inHg , 1023 hPa
Clouds: Clear
Visibility: 10 miles , 16 km
2018/11/18 17:56 KMQY 181756Z VRB04KT 10SM CLR 16/07 A3021 RMK AO2 SLP197 T01610072 10161 20017 58018
KSYI - Shelbyville, Tennessee, USA
Distance from station: SSW 25mi, 40km
Updated: Sun, 18-Nov-2018 12:35pm CST
Clear
Clear
 Wind from SSW
Wind: SSW 5 mph , 7 km/h
Temperature: 61°F , 16°C
Dew Point: 45°F , 7°C
Humidity: 55%
Barometer: 30.19 inHg , 1022.4 hPa
Clouds: Clear
Visibility: 10 miles , 16 km
2018/11/18 18:35 KSYI 181835Z AUTO 21004KT 10SM CLR 16/07 A3019 RMK A01
KBNA - Nashville, Tennessee, USA
Distance from station: NW 25mi, 41km
Updated: Sun, 18-Nov-2018 11:53am CST
Mostly cloudy
Mostly cloudy
 Wind from S
Wind: S 9 mph , 15 km/h
Temperature: 63°F , 17°C
Dew Point: 43°F , 6°C
Humidity: 49%
Barometer: 30.20 inHg , 1022.7 hPa
Clouds: Mostly cloudy
Visibility: 10 miles , 16 km
Cloud details: Partly cloudy 20000 ft
Mostly cloudy 25000 ft
2018/11/18 17:53 KBNA 181753Z 19008KT 10SM SCT200 BKN250 17/06 A3020 RMK AO2 SLP226 T01720056 10172 20039 58017
 
KRNC - Mcminnville, Tennessee, USA
Distance from station: ESE 30mi, 48km
Updated: Sun, 18-Nov-2018 12:35pm CST
Clear
Clear
 Wind from W
Wind: W 8 mph , 13 km/h
Temperature: 61°F , 16°C
Dew Point: 43°F , 6°C
Humidity: 52%
Barometer: 30.19 inHg , 1022.4 hPa
Clouds: Clear
Visibility: 10 miles , 16 km
2018/11/18 18:35 KRNC 181835Z AUTO 26007KT 10SM CLR 16/06 A3019 RMK A01
KM33 - Gallatin, Tennessee, USA
Distance from station: N 33mi, 54km
Updated: Wed, 23-May-2018 7:55pm CDT
NOT Current
Clear
Clear
 Wind from calm
Wind: Calm
Temperature: 79°F , 26°C
Dew Point: 66°F , 19°C
Humidity: 65%
Barometer: 30.10 inHg , 1019.3 hPa
Clouds: Clear
Visibility: 10 miles , 16 km
2018/05/24 00:55 KM33 240055Z AUTO 00000KT 10SM CLR 26/19 A3010 RMK A01
KTHA - Tullahoma, Tennessee, USA
Distance from station: S 36mi, 59km
Updated: Sun, 18-Nov-2018 12:35pm CST
Clear
Clear
 Wind from SSW
Wind: SSW 5 mph , 7 km/h
Temperature: 59°F , 15°C
Dew Point: 43°F , 6°C
Humidity: 55%
Barometer: 30.19 inHg , 1022.4 hPa
Clouds: Clear
Visibility: 10 miles , 16 km
2018/11/18 18:35 KTHA 181835Z AUTO 20004KT 10SM CLR 15/06 A3019 RMK A01
 
KJWN - Nashv/Jc Tune, Tennessee, USA
Distance from station: WNW 37mi, 60km
Updated: Sun, 18-Nov-2018 12:35pm CST
Clear
Clear
 Wind from SSW
Wind: SSW 12 mph , 19 km/h
Temperature: 64°F , 18°C
Dew Point: 41°F , 5°C
Humidity: 43%
Barometer: 30.15 inHg , 1021 hPa
Clouds: Clear
Visibility: 10 miles , 16 km
2018/11/18 18:35 KJWN 181835Z AUTO 21010KT 10SM CLR 18/05 A3015 RMK A01
KSRB - Sparta, Tennessee, USA
Distance from station: ENE 45mi, 72km
Updated: Sun, 18-Nov-2018 12:35pm CST
Clear
Clear
 Wind from varies
Wind: varies 6 mph , 9 km/h
Temperature: 61°F , 16°C
Dew Point: 45°F , 7°C
Humidity: 55%
Barometer: 30.18 inHg , 1022 hPa
Clouds: Clear
Visibility: 10 miles , 16 km
2018/11/18 18:35 KSRB 181835Z AUTO VRB05KT 10SM CLR 16/07 A3018 RMK A01
K1M5 - Portland, Tennessee, USA
Distance from station: NNW 49mi, 78km
Updated: Sun, 18-Nov-2018 12:35pm CST
Clear
Clear
 Wind from SSW
Wind: SSW 7 mph , 11 km/h, Gust: 14 mph , 22 km/h
Temperature: 61°F , 16°C
Dew Point: 45°F , 7°C
Humidity: 55%
Barometer: 30.16 inHg , 1021.3 hPa
Clouds: Clear
Visibility: 10 miles , 16 km
2018/11/18 18:35 K1M5 181835Z AUTO 20006G12KT 10SM CLR 16/07 A3016 RMK A01